Terminal Aerodrome Forecast
Issued by NWS Goodland, KS

Home | Current Version | Previous Version | Text Only | Print | Product List | Glossary On
Versions: 1 2 3 4 5 6 7 8 9 10 11 12 13 14 15 16 17 18 19
356
FTUS43 KGLD 291121
TAFGLD
TAF
KGLD 291121Z 2912/3012 05011KT P6SM -SHRA OVC006
     FM291800 05016G24KT 1SM SHRA OVC003
     FM292200 02012G17KT P6SM -SHRA OVC005
     FM300000 01012G17KT 3/4SM -SHRASN OVC003
     FM300600 34011KT P6SM -SHRASN OVC003
     FM300900 33012G17KT P6SM VCSH OVC003=

USA.gov is the U.S. government's official web portal to all federal, state and local government web resources and services.